sensor_id;sensor_type;location;lat;lon;timestamp;pressure;altitude;pressure_sealevel;temperature;humidity
19553;BME280;9420;50.876;7.012;2022-12-13T00:01:30;100797.94;;;3.61;100.00
19553;BME280;9420;50.876;7.012;2022-12-13T00:04:01;100801.41;;;3.67;100.00
19553;BME280;9420;50.876;7.012;2022-12-13T00:06:29;100788.38;;;3.63;100.00
19553;BME280;9420;50.876;7.012;2022-12-13T00:08:57;100797.94;;;3.25;100.00
19553;BME280;9420;50.876;7.012;2022-12-13T00:11:25;100788.38;;;3.36;100.00
19553;BME280;9420;50.876;7.012;2022-12-13T00:13:53;100801.41;;;3.45;100.00
19553;BME280;9420;50.876;7.012;2022-12-13T00:16:23;100801.41;;;3.43;100.00
19553;BME280;9420;50.876;7.012;2022-12-13T00:18:55;100804.03;;;3.54;100.00
19553;BME280;9420;50.876;7.012;2022-12-13T00:21:24;100796.19;;;3.40;100.00
19553;BME280;9420;50.876;7.012;2022-12-13T00:23:52;100802.25;;;3.48;100.00
19553;BME280;9420;50.876;7.012;2022-12-13T00:26:22;100802.28;;;3.47;100.00
19553;BME280;9420;50.876;7.012;2022-12-13T00:28:50;100798.78;;;3.58;100.00
19553;BME280;9420;50.876;7.012;2022-12-13T00:31:20;100799.69;;;3.66;100.00
19553;BME280;9420;50.876;7.012;2022-12-13T00:33:48;100807.47;;;3.69;100.00
19553;BME280;9420;50.876;7.012;2022-12-13T00:36:17;100798.78;;;3.72;100.00
19553;BME280;9420;50.876;7.012;2022-12-13T00:38:45;100802.25;;;3.89;100.00
19553;BME280;9420;50.876;7.012;2022-12-13T00:41:14;100802.28;;;3.77;100.00
19553;BME280;9420;50.876;7.012;2022-12-13T00:43:42;100805.72;;;3.73;100.00
19553;BME280;9420;50.876;7.012;2022-12-13T00:46:14;100811.81;;;3.72;100.00
19553;BME280;9420;50.876;7.012;2022-12-13T00:48:47;100804.88;;;3.56;100.00
19553;BME280;9420;50.876;7.012;2022-12-13T00:51:14;100813.53;;;3.50;100.00
19553;BME280;9420;50.876;7.012;2022-12-13T00:53:43;100807.50;;;3.50;100.00
19553;BME280;9420;50.876;7.012;2022-12-13T00:56:12;100810.94;;;3.49;100.00
19553;BME280;9420;50.876;7.012;2022-12-13T00:58:41;100810.06;;;3.38;100.00
19553;BME280;9420;50.876;7.012;2022-12-13T01:01:12;100815.25;;;3.33;100.00
19553;BME280;9420;50.876;7.012;2022-12-13T01:03:41;100810.91;;;3.09;100.00
19553;BME280;9420;50.876;7.012;2022-12-13T01:06:10;100809.19;;;3.17;100.00
19553;BME280;9420;50.876;7.012;2022-12-13T01:08:38;100800.47;;;3.12;100.00
19553;BME280;9420;50.876;7.012;2022-12-13T01:11:07;100792.69;;;3.03;100.00
19553;BME280;9420;50.876;7.012;2022-12-13T01:13:35;100801.34;;;2.96;100.00
19553;BME280;9420;50.876;7.012;2022-12-13T01:16:05;100803.94;;;2.99;100.00
19553;BME280;9420;50.876;7.012;2022-12-13T01:18:32;100803.91;;;2.86;100.00
19553;BME280;9420;50.876;7.012;2022-12-13T01:21:02;100803.91;;;2.87;100.00
19553;BME280;9420;50.876;7.012;2022-12-13T01:23:30;100806.50;;;2.86;100.00
19553;BME280;9420;50.876;7.012;2022-12-13T01:25:57;100806.47;;;2.74;100.00
19553;BME280;9420;50.876;7.012;2022-12-13T01:28:25;100798.69;;;2.84;100.00
19553;BME280;9420;50.876;7.012;2022-12-13T01:30:55;100798.69;;;2.81;100.00
19553;BME280;9420;50.876;7.012;2022-12-13T01:33:23;100800.44;;;2.88;100.00
19553;BME280;9420;50.876;7.012;2022-12-13T01:35:51;100796.97;;;2.95;100.00
19553;BME280;9420;50.876;7.012;2022-12-13T01:38:19;100790.91;;;2.93;100.00
19553;BME280;9420;50.876;7.012;2022-12-13T01:40:49;100789.22;;;3.01;100.00
19553;BME280;9420;50.876;7.012;2022-12-13T01:43:27;100795.28;;;3.09;100.00
19553;BME280;9420;50.876;7.012;2022-12-13T01:45:55;100805.66;;;2.94;100.00
19553;BME280;9420;50.876;7.012;2022-12-13T01:48:28;100797.00;;;3.04;100.00
19553;BME280;9420;50.876;7.012;2022-12-13T01:51:02;100805.66;;;3.02;100.00
19553;BME280;9420;50.876;7.012;2022-12-13T01:53:36;100805.66;;;2.93;100.00
19553;BME280;9420;50.876;7.012;2022-12-13T01:56:09;100804.81;;;3.06;100.00
19553;BME280;9420;50.876;7.012;2022-12-13T01:58:39;100803.00;;;2.81;100.00
19553;BME280;9420;50.876;7.012;2022-12-13T02:01:08;100804.78;;;2.91;100.00
19553;BME280;9420;50.876;7.012;2022-12-13T02:03:36;100800.44;;;2.82;100.00
19553;BME280;9420;50.876;7.012;2022-12-13T02:06:10;100790.00;;;2.73;100.00
19553;BME280;9420;50.876;7.012;2022-12-13T02:08:40;100801.31;;;2.89;100.00
19553;BME280;9420;50.876;7.012;2022-12-13T02:11:10;100800.44;;;2.91;100.00
19553;BME280;9420;50.876;7.012;2022-12-13T02:13:39;100800.44;;;2.82;100.00
19553;BME280;9420;50.876;7.012;2022-12-13T02:16:17;100793.47;;;2.75;100.00
19553;BME280;9420;50.876;7.012;2022-12-13T02:19:12;100798.69;;;2.84;100.00
19553;BME280;9420;50.876;7.012;2022-12-13T02:22:03;100800.38;;;2.73;100.00
19553;BME280;9420;50.876;7.012;2022-12-13T02:24:55;100801.28;;;2.83;100.00
19553;BME280;9420;50.876;7.012;2022-12-13T02:28:02;100793.53;;;3.02;100.00
19553;BME280;9420;50.876;7.012;2022-12-13T02:30:38;100790.91;;;2.87;100.00
19553;BME280;9420;50.876;7.012;2022-12-13T02:33:25;100800.34;;;2.61;100.00
19553;BME280;9420;50.876;7.012;2022-12-13T02:36:07;100798.69;;;2.81;100.00
19553;BME280;9420;50.876;7.012;2022-12-13T02:38:49;100800.38;;;2.67;100.00
19553;BME280;9420;50.876;7.012;2022-12-13T02:41:25;100805.63;;;2.82;100.00
19553;BME280;9420;50.876;7.012;2022-12-13T02:43:59;100809.00;;;2.57;100.00
19553;BME280;9420;50.876;7.012;2022-12-13T02:46:34;100805.59;;;2.79;100.00
19553;BME280;9420;50.876;7.012;2022-12-13T02:49:04;100800.41;;;2.76;100.00
19553;BME280;9420;50.876;7.012;2022-12-13T02:51:34;100803.81;;;2.66;100.00
19553;BME280;9420;50.876;7.012;2022-12-13T02:54:02;100802.06;;;2.56;100.00
19553;BME280;9420;50.876;7.012;2022-12-13T02:56:30;100800.31;;;2.52;100.00
19553;BME280;9420;50.876;7.012;2022-12-13T02:59:00;100798.59;;;2.57;100.00
19553;BME280;9420;50.876;7.012;2022-12-13T03:01:46;100795.13;;;2.55;100.00
19553;BME280;9420;50.876;7.012;2022-12-13T03:04:27;100788.28;;;2.72;100.00
19553;BME280;9420;50.876;7.012;2022-12-13T03:07:10;100786.50;;;2.68;100.00
19553;BME280;9420;50.876;7.012;2022-12-13T03:09:54;100779.56;;;2.63;100.00
19553;BME280;9420;50.876;7.012;2022-12-13T03:12:33;100782.13;;;2.57;100.00
19553;BME280;9420;50.876;7.012;2022-12-13T03:15:26;100789.97;;;2.61;100.00
19553;BME280;9420;50.876;7.012;2022-12-13T03:18:03;100788.16;;;2.48;100.00
19553;BME280;9420;50.876;7.012;2022-12-13T03:20:45;100783.91;;;2.58;100.00
19553;BME280;9420;50.876;7.012;2022-12-13T03:23:14;100784.75;;;2.58;100.00
19553;BME280;9420;50.876;7.012;2022-12-13T03:25:43;100784.59;;;2.25;100.00
19553;BME280;9420;50.876;7.012;2022-12-13T03:28:11;100790.59;;;2.13;100.00
19553;BME280;9420;50.876;7.012;2022-12-13T03:30:38;100795.00;;;2.22;100.00
19553;BME280;9420;50.876;7.012;2022-12-13T03:33:07;100793.31;;;2.39;100.00
19553;BME280;9420;50.876;7.012;2022-12-13T03:35:34;100803.72;;;2.39;100.00
19553;BME280;9420;50.876;7.012;2022-12-13T03:38:02;100799.41;;;2.44;100.00
19553;BME280;9420;50.876;7.012;2022-12-13T03:40:31;100806.31;;;2.37;100.00
19553;BME280;9420;50.876;7.012;2022-12-13T03:42:59;100800.25;;;2.40;100.00
19553;BME280;9420;50.876;7.012;2022-12-13T03:45:27;100814.03;;;2.24;100.00
19553;BME280;9420;50.876;7.012;2022-12-13T03:47:54;100807.22;;;2.50;100.00
19553;BME280;9420;50.876;7.012;2022-12-13T03:50:22;100801.97;;;2.41;100.00
19553;BME280;9420;50.876;7.012;2022-12-13T03:52:57;100798.50;;;2.39;100.00
19553;BME280;9420;50.876;7.012;2022-12-13T03:55:24;100805.31;;;2.16;100.00
19553;BME280;9420;50.876;7.012;2022-12-13T03:57:51;100804.59;;;2.39;100.00
19553;BME280;9420;50.876;7.012;2022-12-13T04:00:18;100796.75;;;2.32;100.00
19553;BME280;9420;50.876;7.012;2022-12-13T04:02:46;100797.00;;;4.09;98.26
19553;BME280;9420;50.876;7.012;2022-12-13T04:05:13;100809.63;;;2.14;100.00
19553;BME280;9420;50.876;7.012;2022-12-13T04:07:42;100810.47;;;2.10;100.00
19553;BME280;9420;50.876;7.012;2022-12-13T04:10:10;100811.13;;;1.76;100.00
19553;BME280;9420;50.876;7.012;2022-12-13T04:12:37;100809.50;;;1.93;100.00
19553;BME280;9420;50.876;7.012;2022-12-13T04:15:21;100809.59;;;2.05;100.00
19553;BME280;9420;50.876;7.012;2022-12-13T04:17:49;100818.19;;;1.96;100.00
19553;BME280;9420;50.876;7.012;2022-12-13T04:20:16;100806.97;;;2.02;100.00
19553;BME280;9420;50.876;7.012;2022-12-13T04:22:45;100806.94;;;1.96;100.00
19553;BME280;9420;50.876;7.012;2022-12-13T04:25:12;100801.00;;;2.18;100.00
19553;BME280;9420;50.876;7.012;2022-12-13T04:27:39;100805.94;;;1.79;100.00
19553;BME280;9420;50.876;7.012;2022-12-13T04:30:08;100798.19;;;1.82;100.00
19553;BME280;9420;50.876;7.012;2022-12-13T04:32:35;100800.00;;;1.92;100.00
19553;BME280;9420;50.876;7.012;2022-12-13T04:35:02;100800.13;;;2.16;100.00
19553;BME280;9420;50.876;7.012;2022-12-13T04:37:30;100804.41;;;2.06;100.00
19553;BME280;9420;50.876;7.012;2022-12-13T04:39:58;100806.13;;;2.06;100.00
19553;BME280;9420;50.876;7.012;2022-12-13T04:42:25;100800.81;;;1.88;100.00
19553;BME280;9420;50.876;7.012;2022-12-13T04:44:52;100794.88;;;2.01;100.00
19553;BME280;9420;50.876;7.012;2022-12-13T04:47:20;100796.44;;;1.81;100.00
19553;BME280;9420;50.876;7.012;2022-12-13T04:49:47;100796.50;;;1.90;100.00
19553;BME280;9420;50.876;7.012;2022-12-13T04:52:14;100791.44;;;2.11;100.00
19553;BME280;9420;50.876;7.012;2022-12-13T04:54:41;100793.16;;;2.06;100.00
19553;BME280;9420;50.876;7.012;2022-12-13T04:57:10;100792.22;;;1.98;100.00
19553;BME280;9420;50.876;7.012;2022-12-13T04:59:38;100787.78;;;1.76;100.00
19553;BME280;9420;50.876;7.012;2022-12-13T05:02:06;100781.00;;;1.99;100.00
19553;BME280;9420;50.876;7.012;2022-12-13T05:04:35;100774.13;;;2.10;100.00
19553;BME280;9420;50.876;7.012;2022-12-13T05:07:03;100775.72;;;1.87;100.00
19553;BME280;9420;50.876;7.012;2022-12-13T05:09:30;100772.34;;;1.97;100.00
19553;BME280;9420;50.876;7.012;2022-12-13T05:11:57;100770.72;;;2.23;100.00
19553;BME280;9420;50.876;7.012;2022-12-13T05:14:25;100769.84;;;2.19;100.00
19553;BME280;9420;50.876;7.012;2022-12-13T05:16:52;100765.53;;;2.23;100.00
19553;BME280;9420;50.876;7.012;2022-12-13T05:19:19;100762.16;;;2.36;100.00
19553;BME280;9420;50.876;7.012;2022-12-13T05:21:47;100769.84;;;2.15;100.00
19553;BME280;9420;50.876;7.012;2022-12-13T05:24:14;100769.81;;;2.09;100.00
19553;BME280;9420;50.876;7.012;2022-12-13T05:26:42;100765.44;;;2.05;100.00
19553;BME280;9420;50.876;7.012;2022-12-13T05:29:09;100761.97;;;2.03;100.00
19553;BME280;9420;50.876;7.012;2022-12-13T05:31:37;100772.22;;;1.82;100.00
19553;BME280;9420;50.876;7.012;2022-12-13T05:34:05;100763.72;;;2.08;100.00
19553;BME280;9420;50.876;7.012;2022-12-13T05:36:32;100760.25;;;2.08;100.00
19553;BME280;9420;50.876;7.012;2022-12-13T05:38:59;100758.50;;;2.01;100.00
19553;BME280;9420;50.876;7.012;2022-12-13T05:41:31;100760.06;;;1.75;100.00
19553;BME280;9420;50.876;7.012;2022-12-13T05:43:59;100761.13;;;2.08;100.00
19553;BME280;9420;50.876;7.012;2022-12-13T05:46:26;100753.81;;;1.44;100.00
19553;BME280;9420;50.876;7.012;2022-12-13T05:48:54;100756.66;;;1.85;100.00
19553;BME280;9420;50.876;7.012;2022-12-13T05:51:21;100751.44;;;1.79;100.00
19553;BME280;9420;50.876;7.012;2022-12-13T05:53:48;100758.34;;;1.74;100.00
19553;BME280;9420;50.876;7.012;2022-12-13T05:56:15;100747.28;;;2.08;100.00
19553;BME280;9420;50.876;7.012;2022-12-13T05:58:42;100753.22;;;1.86;100.00
19553;BME280;9420;50.876;7.012;2022-12-13T06:01:13;100760.06;;;1.72;100.00
19553;BME280;9420;50.876;7.012;2022-12-13T06:03:43;100748.03;;;1.86;100.00
19553;BME280;9420;50.876;7.012;2022-12-13T06:06:13;100748.88;;;1.85;100.00
19553;BME280;9420;50.876;7.012;2022-12-13T06:08:42;100749.69;;;1.75;100.00
19553;BME280;9420;50.876;7.012;2022-12-13T06:11:09;100747.84;;;1.57;100.00
19553;BME280;9420;50.876;7.012;2022-12-13T06:13:37;100745.50;;;1.95;100.00
19553;BME280;9420;50.876;7.012;2022-12-13T06:16:05;100744.56;;;1.84;100.00
19553;BME280;9420;50.876;7.012;2022-12-13T06:18:34;100745.50;;;1.95;100.00
19553;BME280;9420;50.876;7.012;2022-12-13T06:21:05;100742.09;;;2.08;100.00
19553;BME280;9420;50.876;7.012;2022-12-13T06:23:36;100747.94;;;1.68;100.00
19553;BME280;9420;50.876;7.012;2022-12-13T06:26:06;100737.75;;;2.10;100.00
19553;BME280;9420;50.876;7.012;2022-12-13T06:28:34;100741.25;;;2.15;100.00
19553;BME280;9420;50.876;7.012;2022-12-13T06:31:02;100729.16;;;2.17;100.00
19553;BME280;9420;50.876;7.012;2022-12-13T06:33:31;100740.50;;;2.32;100.00
19553;BME280;9420;50.876;7.012;2022-12-13T06:36:02;100736.91;;;2.11;100.00
19553;BME280;9420;50.876;7.012;2022-12-13T06:38:29;100743.84;;;2.09;100.00
19553;BME280;9420;50.876;7.012;2022-12-13T06:41:08;100738.63;;;2.04;100.00
19553;BME280;9420;50.876;7.012;2022-12-13T06:43:36;100744.59;;;1.90;100.00
19553;BME280;9420;50.876;7.012;2022-12-13T06:46:04;100740.28;;;1.92;100.00
19553;BME280;9420;50.876;7.012;2022-12-13T06:48:31;100742.09;;;2.06;100.00
19553;BME280;9420;50.876;7.012;2022-12-13T06:51:00;100742.09;;;2.08;100.00
19553;BME280;9420;50.876;7.012;2022-12-13T06:53:29;100743.00;;;2.13;100.00
19553;BME280;9420;50.876;7.012;2022-12-13T06:56:01;100750.66;;;1.93;100.00
19553;BME280;9420;50.876;7.012;2022-12-13T06:58:29;100749.06;;;2.16;100.00
19553;BME280;9420;50.876;7.012;2022-12-13T07:01:01;100748.13;;;2.01;100.00
19553;BME280;9420;50.876;7.012;2022-12-13T07:03:29;100748.03;;;1.86;100.00
19553;BME280;9420;50.876;7.012;2022-12-13T07:05:57;100744.56;;;1.87;100.00
19553;BME280;9420;50.876;7.012;2022-12-13T07:08:24;100737.75;;;2.04;100.00
19553;BME280;9420;50.876;7.012;2022-12-13T07:10:52;100745.44;;;1.89;100.00
19553;BME280;9420;50.876;7.012;2022-12-13T07:13:21;100751.50;;;1.88;100.00
19553;BME280;9420;50.876;7.012;2022-12-13T07:15:49;100754.84;;;1.69;100.00
19553;BME280;9420;50.876;7.012;2022-12-13T07:18:17;100748.13;;;2.04;100.00
19553;BME280;9420;50.876;7.012;2022-12-13T07:20:44;100749.78;;;1.90;100.00
19553;BME280;9420;50.876;7.012;2022-12-13T07:23:12;100761.97;;;2.06;100.00
19553;BME280;9420;50.876;7.012;2022-12-13T07:25:39;100746.38;;;2.00;100.00
19553;BME280;9420;50.876;7.012;2022-12-13T07:28:08;100744.56;;;1.84;100.00
19553;BME280;9420;50.876;7.012;2022-12-13T07:30:38;100753.16;;;1.74;100.00
19553;BME280;9420;50.876;7.012;2022-12-13T07:33:07;100755.84;;;1.93;100.00
19553;BME280;9420;50.876;7.012;2022-12-13T07:35:34;100750.59;;;1.83;100.00
19553;BME280;9420;50.876;7.012;2022-12-13T07:38:01;100752.44;;;2.03;100.00
19553;BME280;9420;50.876;7.012;2022-12-13T07:40:28;100748.88;;;1.83;100.00
19553;BME280;9420;50.876;7.012;2022-12-13T07:42:55;100745.53;;;2.01;100.00
19553;BME280;9420;50.876;7.012;2022-12-13T07:45:22;100750.53;;;1.69;100.00
19553;BME280;9420;50.876;7.012;2022-12-13T07:47:49;100748.84;;;1.77;100.00
19553;BME280;9420;50.876;7.012;2022-12-13T07:50:19;100748.97;;;2.01;100.00
19553;BME280;9420;50.876;7.012;2022-12-13T07:52:46;100743.78;;;1.97;100.00
19553;BME280;9420;50.876;7.012;2022-12-13T07:55:14;100743.66;;;1.79;100.00
19553;BME280;9420;50.876;7.012;2022-12-13T07:57:42;100739.31;;;1.75;100.00
19553;BME280;9420;50.876;7.012;2022-12-13T08:00:11;100741.25;;;2.09;100.00
19553;BME280;9420;50.876;7.012;2022-12-13T08:02:39;100736.09;;;2.22;100.00
19553;BME280;9420;50.876;7.012;2022-12-13T08:05:07;100729.13;;;2.14;100.00
19553;BME280;9420;50.876;7.012;2022-12-13T08:07:36;100742.22;;;2.32;100.00
19553;BME280;9420;50.876;7.012;2022-12-13T08:10:04;100741.38;;;2.42;100.00
19553;BME280;9420;50.876;7.012;2022-12-13T08:12:32;100746.56;;;2.42;100.00
19553;BME280;9420;50.876;7.012;2022-12-13T08:14:59;100752.50;;;2.14;100.00
19553;BME280;9420;50.876;7.012;2022-12-13T08:17:26;100750.81;;;2.20;100.00
19553;BME280;9420;50.876;7.012;2022-12-13T08:19:53;100757.78;;;2.33;100.00
19553;BME280;9420;50.876;7.012;2022-12-13T08:22:20;100750.94;;;2.52;100.00
19553;BME280;9420;50.876;7.012;2022-12-13T08:24:49;100755.28;;;2.53;100.00
19553;BME280;9420;50.876;7.012;2022-12-13T08:27:16;100753.66;;;2.88;100.00
19553;BME280;9420;50.876;7.012;2022-12-13T08:29:43;100762.25;;;2.63;100.00
19553;BME280;9420;50.876;7.012;2022-12-13T08:32:12;100753.53;;;2.49;100.00
19553;BME280;9420;50.876;7.012;2022-12-13T08:37:07;100765.75;;;2.80;100.00
19553;BME280;9420;50.876;7.012;2022-12-13T08:39:36;100757.03;;;2.60;100.00
19553;BME280;9420;50.876;7.012;2022-12-13T08:42:08;100765.63;;;2.38;100.00
19553;BME280;9420;50.876;7.012;2022-12-13T08:44:38;100751.91;;;2.84;100.00
19553;BME280;9420;50.876;7.012;2022-12-13T08:47:05;100751.03;;;2.84;100.00
19553;BME280;9420;50.876;7.012;2022-12-13T08:49:32;100756.22;;;2.78;100.00
19553;BME280;9420;50.876;7.012;2022-12-13T08:51:59;100757.09;;;2.93;100.00
19553;BME280;9420;50.876;7.012;2022-12-13T08:54:26;100757.16;;;3.10;100.00
19553;BME280;9420;50.876;7.012;2022-12-13T08:56:54;100754.56;;;3.22;100.00
19553;BME280;9420;50.876;7.012;2022-12-13T08:59:23;100758.84;;;3.08;100.00
19553;BME280;9420;50.876;7.012;2022-12-13T09:01:51;100765.81;;;3.07;100.00
19553;BME280;9420;50.876;7.012;2022-12-13T09:04:18;100759.78;;;3.27;100.00
19553;BME280;9420;50.876;7.012;2022-12-13T09:06:45;100748.19;;;4.60;97.86
19553;BME280;9420;50.876;7.012;2022-12-13T09:09:12;100755.41;;;3.38;100.00
19553;BME280;9420;50.876;7.012;2022-12-13T09:11:40;100753.31;;;4.69;98.69
19553;BME280;9420;50.876;7.012;2022-12-13T09:14:07;100759.16;;;5.12;91.89
19553;BME280;9420;50.876;7.012;2022-12-13T09:16:35;100758.38;;;5.00;93.75
19553;BME280;9420;50.876;7.012;2022-12-13T09:19:04;100756.47;;;5.23;91.71
19553;BME280;9420;50.876;7.012;2022-12-13T09:21:31;100758.91;;;3.52;99.22
19553;BME280;9420;50.876;7.012;2022-12-13T09:23:59;100757.03;;;4.20;95.58
19553;BME280;9420;50.876;7.012;2022-12-13T09:26:26;100758.91;;;3.52;100.00
19553;BME280;9420;50.876;7.012;2022-12-13T09:28:53;100753.63;;;3.92;100.00
19553;BME280;9420;50.876;7.012;2022-12-13T09:31:22;100755.38;;;3.95;100.00
19553;BME280;9420;50.876;7.012;2022-12-13T09:33:51;100762.31;;;3.93;100.00
19553;BME280;9420;50.876;7.012;2022-12-13T09:36:20;100751.88;;;3.96;100.00
19553;BME280;9420;50.876;7.012;2022-12-13T09:38:47;100757.13;;;3.69;100.00
19553;BME280;9420;50.876;7.012;2022-12-13T09:41:20;100765.84;;;3.62;100.00
19553;BME280;9420;50.876;7.012;2022-12-13T09:43:54;100770.94;;;4.13;100.00
19553;BME280;9420;50.876;7.012;2022-12-13T09:46:29;100764.88;;;4.11;100.00
19553;BME280;9420;50.876;7.012;2022-12-13T09:49:03;100754.41;;;4.25;100.00
19553;BME280;9420;50.876;7.012;2022-12-13T09:51:33;100760.44;;;4.37;100.00
19553;BME280;9420;50.876;7.012;2022-12-13T09:54:00;100760.47;;;4.28;100.00
19553;BME280;9420;50.876;7.012;2022-12-13T09:56:27;100757.59;;;4.86;98.76
19553;BME280;9420;50.876;7.012;2022-12-13T09:58:55;100769.13;;;4.36;100.00
19553;BME280;9420;50.876;7.012;2022-12-13T10:01:24;100770.00;;;4.34;99.64
19553;BME280;9420;50.876;7.012;2022-12-13T10:03:54;100767.22;;;4.74;99.01
19553;BME280;9420;50.876;7.012;2022-12-13T10:06:24;100768.22;;;4.46;99.77
19553;BME280;9420;50.876;7.012;2022-12-13T10:08:59;100762.81;;;4.82;98.01
19553;BME280;9420;50.876;7.012;2022-12-13T10:11:27;100751.56;;;4.71;97.99
19553;BME280;9420;50.876;7.012;2022-12-13T10:14:02;100749.84;;;4.72;98.50
19553;BME280;9420;50.876;7.012;2022-12-13T10:16:41;100731.09;;;6.26;92.50
19553;BME280;9420;50.876;7.012;2022-12-13T10:19:16;100727.16;;;5.91;92.07
19553;BME280;9420;50.876;7.012;2022-12-13T10:21:46;100734.03;;;4.98;94.14
19553;BME280;9420;50.876;7.012;2022-12-13T10:24:19;100724.59;;;4.78;97.24
19553;BME280;9420;50.876;7.012;2022-12-13T10:26:46;100723.75;;;4.79;97.61
19553;BME280;9420;50.876;7.012;2022-12-13T10:29:14;100704.78;;;6.41;89.14
19553;BME280;9420;50.876;7.012;2022-12-13T10:31:44;100709.31;;;6.93;86.13
19553;BME280;9420;50.876;7.012;2022-12-13T10:34:21;100720.41;;;5.69;86.07
19553;BME280;9420;50.876;7.012;2022-12-13T10:36:51;100711.50;;;4.84;93.87
19553;BME280;9420;50.876;7.012;2022-12-13T10:39:37;100711.47;;;4.94;94.06
19553;BME280;9420;50.876;7.012;2022-12-13T10:42:11;100695.69;;;6.70;86.77
19553;BME280;9420;50.876;7.012;2022-12-13T10:44:39;100707.44;;;5.58;87.44
19553;BME280;9420;50.876;7.012;2022-12-13T10:47:16;100708.75;;;5.07;92.78
19553;BME280;9420;50.876;7.012;2022-12-13T10:49:50;100700.06;;;5.05;93.84
19553;BME280;9420;50.876;7.012;2022-12-13T10:52:26;100686.88;;;5.25;93.22
19553;BME280;9420;50.876;7.012;2022-12-13T10:54:56;100695.91;;;5.79;92.24
19553;BME280;9420;50.876;7.012;2022-12-13T10:57:24;100690.53;;;5.95;90.89
19553;BME280;9420;50.876;7.012;2022-12-13T10:59:51;100675.78;;;5.91;90.86
19553;BME280;9420;50.876;7.012;2022-12-13T11:02:37;100672.44;;;5.74;90.42
19553;BME280;9420;50.876;7.012;2022-12-13T11:05:31;100663.47;;;6.02;90.32
19553;BME280;9420;50.876;7.012;2022-12-13T11:08:22;100644.06;;;8.62;82.42
19553;BME280;9420;50.876;7.012;2022-12-13T11:11:02;100648.69;;;6.64;84.17
19553;BME280;9420;50.876;7.012;2022-12-13T11:13:35;100653.25;;;6.48;87.09
19553;BME280;9420;50.876;7.012;2022-12-13T11:16:19;100636.56;;;6.57;85.57
19553;BME280;9420;50.876;7.012;2022-12-13T11:18:53;100636.28;;;6.75;84.76
19553;BME280;9420;50.876;7.012;2022-12-13T11:21:25;100646.00;;;6.67;82.95
19553;BME280;9420;50.876;7.012;2022-12-13T11:23:58;100640.22;;;7.03;83.27
19553;BME280;9420;50.876;7.012;2022-12-13T11:26:28;100634.38;;;6.86;84.51
19553;BME280;9420;50.876;7.012;2022-12-13T11:29:13;100638.75;;;6.24;84.35
19553;BME280;9420;50.876;7.012;2022-12-13T11:31:56;100628.59;;;6.66;84.55
19553;BME280;9420;50.876;7.012;2022-12-13T11:34:35;100620.31;;;6.93;82.75
19553;BME280;9420;50.876;7.012;2022-12-13T11:37:16;100619.06;;;7.15;81.92
19553;BME280;9420;50.876;7.012;2022-12-13T11:39:53;100615.19;;;7.81;78.32
19553;BME280;9420;50.876;7.012;2022-12-13T11:42:29;100599.84;;;9.81;72.52
19553;BME280;9420;50.876;7.012;2022-12-13T11:45:06;100593.97;;;11.39;63.59
19553;BME280;9420;50.876;7.012;2022-12-13T11:47:43;100593.53;;;12.66;57.64
19553;BME280;9420;50.876;7.012;2022-12-13T11:50:20;100595.41;;;11.23;54.81
19553;BME280;9420;50.876;7.012;2022-12-13T11:52:52;100593.03;;;11.15;55.05
19553;BME280;9420;50.876;7.012;2022-12-13T11:55:39;100589.53;;;11.64;54.53
19553;BME280;9420;50.876;7.012;2022-12-13T11:58:19;100589.72;;;12.73;53.41
19553;BME280;9420;50.876;7.012;2022-12-13T12:00:55;100566.09;;;14.49;48.79
19553;BME280;9420;50.876;7.012;2022-12-13T12:03:35;100553.56;;;16.53;44.27
19553;BME280;9420;50.876;7.012;2022-12-13T12:06:12;100561.50;;;15.56;42.89
19553;BME280;9420;50.876;7.012;2022-12-13T12:08:44;100564.00;;;15.92;41.23
19553;BME280;9420;50.876;7.012;2022-12-13T12:11:21;100547.03;;;17.47;39.46
19553;BME280;9420;50.876;7.012;2022-12-13T12:13:59;100557.59;;;17.05;37.64
19553;BME280;9420;50.876;7.012;2022-12-13T12:16:37;100562.16;;;15.44;39.56
19553;BME280;9420;50.876;7.012;2022-12-13T12:19:11;100558.19;;;16.65;38.40
19553;BME280;9420;50.876;7.012;2022-12-13T12:21:58;100558.09;;;15.03;39.05
19553;BME280;9420;50.876;7.012;2022-12-13T12:24:46;100547.97;;;16.11;38.97
19553;BME280;9420;50.876;7.012;2022-12-13T12:27:30;100550.97;;;17.12;36.94
19553;BME280;9420;50.876;7.012;2022-12-13T12:30:15;100559.78;;;15.04;39.16
19553;BME280;9420;50.876;7.012;2022-12-13T12:32:52;100561.56;;;13.16;41.20
19553;BME280;9420;50.876;7.012;2022-12-13T12:35:57;100550.72;;;13.22;41.43
19553;BME280;9420;50.876;7.012;2022-12-13T12:39:29;100559.03;;;11.57;44.60
19553;BME280;9420;50.876;7.012;2022-12-13T12:42:31;100566.59;;;10.38;47.26
19553;BME280;9420;50.876;7.012;2022-12-13T12:45:15;100556.25;;;10.32;48.13
19553;BME280;9420;50.876;7.012;2022-12-13T12:48:02;100553.63;;;10.03;48.41
19553;BME280;9420;50.876;7.012;2022-12-13T12:50:41;100550.94;;;9.12;51.21
19553;BME280;9420;50.876;7.012;2022-12-13T12:53:28;100556.13;;;9.15;51.84
19553;BME280;9420;50.876;7.012;2022-12-13T12:56:15;100542.25;;;9.41;51.64
19553;BME280;9420;50.876;7.012;2022-12-13T12:58:59;100542.19;;;9.75;51.77
19553;BME280;9420;50.876;7.012;2022-12-13T13:01:49;100546.34;;;9.52;52.32
19553;BME280;9420;50.876;7.012;2022-12-13T13:04:25;100539.56;;;10.04;51.34
19553;BME280;9420;50.876;7.012;2022-12-13T13:06:59;100530.16;;;11.04;49.03
19553;BME280;9420;50.876;7.012;2022-12-13T13:09:31;100530.97;;;10.28;50.18
19553;BME280;9420;50.876;7.012;2022-12-13T13:12:03;100531.03;;;9.96;51.16
19553;BME280;9420;50.876;7.012;2022-12-13T13:14:34;100537.94;;;9.38;52.09
19553;BME280;9420;50.876;7.012;2022-12-13T13:17:44;100541.47;;;9.99;50.23
19553;BME280;9420;50.876;7.012;2022-12-13T13:20:19;100539.66;;;10.01;50.87
19553;BME280;9420;50.876;7.012;2022-12-13T13:22:49;100542.72;;;9.56;50.72
19553;BME280;9420;50.876;7.012;2022-12-13T13:25:27;100545.69;;;8.78;52.64
19553;BME280;9420;50.876;7.012;2022-12-13T13:28:10;100555.34;;;8.41;53.47
19553;BME280;9420;50.876;7.012;2022-12-13T13:31:01;100561.25;;;8.11;53.91